createdAt,value
2023-04-27T05:03:17.879Z,100.00
2023-04-27T05:05:45.862Z,100.00
2023-04-27T05:08:13.776Z,100.00
2023-04-27T05:10:41.286Z,100.00
2023-04-27T05:13:08.785Z,100.00
2023-04-27T05:15:37.659Z,100.00
2023-04-27T05:18:04.322Z,100.00
2023-04-27T05:20:35.241Z,100.00
2023-04-27T05:23:02.165Z,100.00
2023-04-27T05:25:41.765Z,100.00
2023-04-27T05:28:09.531Z,100.00
2023-04-27T05:30:37.482Z,100.00
2023-04-27T05:33:05.218Z,100.00
2023-04-27T05:35:33.044Z,100.00
2023-04-27T05:38:00.167Z,100.00
2023-04-27T05:40:27.562Z,100.00
2023-04-27T05:42:54.138Z,100.00
2023-04-27T05:45:21.972Z,100.00
2023-04-27T05:47:48.787Z,100.00
2023-04-27T05:50:15.785Z,100.00
2023-04-27T05:52:43.083Z,100.00
2023-04-27T05:55:10.000Z,100.00
2023-04-27T05:57:37.241Z,100.00
2023-04-27T06:00:09.068Z,100.00
2023-04-27T06:02:39.347Z,100.00
2023-04-27T06:05:06.996Z,100.00
2023-04-27T06:07:34.317Z,100.00
2023-04-27T06:10:00.857Z,100.00
2023-04-27T06:12:28.062Z,100.00
2023-04-27T06:14:54.597Z,100.00
2023-04-27T06:17:22.291Z,100.00
2023-04-27T06:19:48.852Z,100.00
2023-04-27T06:22:16.151Z,100.00
2023-04-27T06:24:42.765Z,100.00
2023-04-27T06:27:09.708Z,100.00
2023-04-27T06:29:36.713Z,100.00
2023-04-27T06:32:06.926Z,100.00
2023-04-27T06:34:35.192Z,100.00
2023-04-27T06:37:02.717Z,100.00
2023-04-27T06:39:29.715Z,100.00
2023-04-27T06:41:56.967Z,100.00
2023-04-27T06:44:25.041Z,100.00
2023-04-27T06:46:52.252Z,100.00
2023-04-27T06:49:18.851Z,100.00
2023-04-27T06:51:46.742Z,100.00
2023-04-27T06:54:13.432Z,100.00
2023-04-27T06:56:40.311Z,100.00
2023-04-27T06:59:08.220Z,100.00
2023-04-27T07:01:35.677Z,100.00
2023-04-27T07:04:06.580Z,100.00
2023-04-27T07:06:33.905Z,100.00
2023-04-27T07:09:00.949Z,100.00
2023-04-27T07:11:28.041Z,100.00
2023-04-27T07:13:55.082Z,94.30
2023-04-27T07:16:22.158Z,97.21
2023-04-27T07:18:48.830Z,93.05
2023-04-27T07:21:16.259Z,96.41
2023-04-27T07:23:42.955Z,93.60
2023-04-27T07:26:10.343Z,86.58
2023-04-27T07:28:36.939Z,88.93
2023-04-27T07:31:07.219Z,87.81
2023-04-27T07:33:35.061Z,84.96
2023-04-27T07:36:02.685Z,82.94
2023-04-27T07:38:30.092Z,80.25
2023-04-27T07:40:58.957Z,77.16
2023-04-27T07:43:25.703Z,76.21
2023-04-27T07:45:52.891Z,77.24
2023-04-27T07:48:19.610Z,76.52
2023-04-27T07:50:47.038Z,75.24
2023-04-27T07:53:13.616Z,74.06
2023-04-27T07:55:41.683Z,66.40
2023-04-27T07:58:08.315Z,70.78
2023-04-27T08:00:35.692Z,70.69
2023-04-27T08:03:03.062Z,67.39
2023-04-27T08:05:31.248Z,67.60
2023-04-27T08:07:58.555Z,70.67
2023-04-27T08:10:25.404Z,67.43
2023-04-27T08:12:52.635Z,65.97
2023-04-27T08:15:19.314Z,65.47
2023-04-27T08:17:47.539Z,66.52
2023-04-27T08:20:14.496Z,66.83
2023-04-27T08:22:42.174Z,65.35
2023-04-27T08:25:09.567Z,66.75
2023-04-27T08:27:40.582Z,67.50
2023-04-27T08:30:08.480Z,68.96
2023-04-27T08:32:35.559Z,66.17
2023-04-27T08:35:02.196Z,68.26
2023-04-27T08:37:29.468Z,65.44
2023-04-27T08:39:56.387Z,65.48
2023-04-27T08:42:23.109Z,66.02
2023-04-27T08:44:50.377Z,64.63
2023-04-27T08:47:17.027Z,63.91
2023-04-27T08:49:44.298Z,64.02
2023-04-27T08:52:15.789Z,62.92
2023-04-27T08:54:43.897Z,62.66
2023-04-27T08:57:15.366Z,63.52
2023-04-27T08:59:45.327Z,60.74
2023-04-27T09:02:20.189Z,59.97
2023-04-27T09:04:48.059Z,62.56
2023-04-27T09:07:16.627Z,60.17
2023-04-27T09:09:45.016Z,59.29
2023-04-27T09:12:17.363Z,58.53
2023-04-27T09:14:55.913Z,59.08
2023-04-27T09:17:27.707Z,57.23
2023-04-27T09:20:24.091Z,57.67
2023-04-27T09:22:55.521Z,56.79
2023-04-27T09:25:29.605Z,57.28
2023-04-27T09:27:58.075Z,58.12
2023-04-27T09:30:27.281Z,57.37
2023-04-27T09:32:58.784Z,55.94
2023-04-27T09:35:29.483Z,52.03
2023-04-27T09:37:56.655Z,51.65
2023-04-27T09:40:28.046Z,55.50
2023-04-27T09:43:04.056Z,53.18
2023-04-27T09:45:33.998Z,52.25
2023-04-27T09:48:01.746Z,50.58
2023-04-27T09:50:29.161Z,50.15
2023-04-27T09:52:57.054Z,49.92
2023-04-27T09:55:39.815Z,52.09
2023-04-27T09:58:26.782Z,50.96
2023-04-27T10:01:15.414Z,51.77
2023-04-27T10:04:19.583Z,51.65
2023-04-27T10:06:56.546Z,50.21
2023-04-27T10:09:26.469Z,52.63
2023-04-27T10:11:54.386Z,52.16
2023-04-27T10:14:23.328Z,52.41
2023-04-27T10:16:55.665Z,50.44
2023-04-27T10:19:24.685Z,48.77
2023-04-27T10:22:05.366Z,51.20
2023-04-27T10:24:38.615Z,48.78
2023-04-27T10:27:11.259Z,50.50
2023-04-27T10:29:39.456Z,50.89
2023-04-27T10:32:14.297Z,50.77
2023-04-27T10:34:45.592Z,51.16
2023-04-27T10:37:12.424Z,49.38
2023-04-27T10:39:48.800Z,49.27
2023-04-27T10:42:28.228Z,49.54
2023-04-27T10:44:57.975Z,49.99
2023-04-27T10:47:35.863Z,48.33
2023-04-27T10:50:05.101Z,50.59
2023-04-27T10:52:31.830Z,51.14
2023-04-27T10:54:59.190Z,49.31
2023-04-27T10:57:26.700Z,51.08
2023-04-27T10:59:55.509Z,50.29
2023-04-27T11:02:27.506Z,50.98
2023-04-27T11:04:56.189Z,48.92
2023-04-27T11:07:28.107Z,50.95
2023-04-27T11:09:55.584Z,48.73
2023-04-27T11:12:22.173Z,50.71
2023-04-27T11:14:49.124Z,51.29
2023-04-27T11:17:16.378Z,49.87
2023-04-27T11:19:49.864Z,48.32
2023-04-27T11:22:17.425Z,46.49
2023-04-27T11:24:49.451Z,49.12
2023-04-27T11:27:17.842Z,49.52
2023-04-27T11:29:44.722Z,48.40
2023-04-27T11:32:23.191Z,48.88
2023-04-27T11:34:55.543Z,49.45
2023-04-27T11:37:25.978Z,50.30
2023-04-27T11:39:54.660Z,49.04
2023-04-27T11:42:26.174Z,49.21
2023-04-27T11:45:06.421Z,50.29
2023-04-27T11:47:35.770Z,48.94
2023-04-27T11:50:05.564Z,48.72
2023-04-27T11:52:34.045Z,47.86
2023-04-27T11:55:02.288Z,49.05
2023-04-27T11:57:31.526Z,48.78
2023-04-27T12:00:01.446Z,49.05
2023-04-27T12:02:30.770Z,46.97
2023-04-27T12:04:59.736Z,47.80
2023-04-27T12:07:27.550Z,48.40
2023-04-27T12:09:54.506Z,49.82
2023-04-27T12:12:24.815Z,49.62
2023-04-27T12:14:51.956Z,49.46
2023-04-27T12:17:19.337Z,48.32
2023-04-27T12:19:46.115Z,48.56
2023-04-27T12:22:13.875Z,47.88
2023-04-27T12:24:40.620Z,47.70
2023-04-27T12:27:08.638Z,46.96
2023-04-27T12:29:35.433Z,47.76
2023-04-27T12:32:02.949Z,49.14
2023-04-27T12:34:29.754Z,47.68
2023-04-27T12:36:57.123Z,47.74
2023-04-27T12:39:25.430Z,46.89
2023-04-27T12:41:53.797Z,48.15
2023-04-27T12:44:21.393Z,48.25
2023-04-27T12:46:49.208Z,48.98
2023-04-27T12:49:16.577Z,48.19
2023-04-27T12:51:44.249Z,48.16
2023-04-27T12:54:12.399Z,48.37
2023-04-27T12:56:40.143Z,47.31
2023-04-27T12:59:07.027Z,48.57
2023-04-27T13:01:35.198Z,47.21
2023-04-27T13:04:04.224Z,47.61
2023-04-27T13:06:32.189Z,47.51
2023-04-27T13:08:59.848Z,47.26
2023-04-27T13:11:27.340Z,49.23
2023-04-27T13:13:55.022Z,47.70
2023-04-27T13:16:25.805Z,47.40
2023-04-27T13:18:55.438Z,48.26
2023-04-27T13:21:23.416Z,47.32
2023-04-27T13:23:51.128Z,46.39
2023-04-27T13:26:18.173Z,46.68
2023-04-27T13:28:44.810Z,47.45
2023-04-27T13:31:12.242Z,47.14
2023-04-27T13:33:41.953Z,47.32
2023-04-27T13:36:13.339Z,47.30
2023-04-27T13:38:40.510Z,47.67
2023-04-27T13:41:07.600Z,47.65
2023-04-27T13:43:34.418Z,48.44
2023-04-27T13:46:02.827Z,47.12
2023-04-27T13:48:30.440Z,47.33
2023-04-27T13:50:58.312Z,47.78
2023-04-27T13:53:25.836Z,47.40
2023-04-27T13:55:58.142Z,47.22
2023-04-27T13:58:26.309Z,47.16
2023-04-27T14:00:54.108Z,48.08
2023-04-27T14:03:22.688Z,47.56
2023-04-27T14:05:51.696Z,49.40
2023-04-27T14:08:19.056Z,46.96
2023-04-27T14:10:46.620Z,48.42
2023-04-27T14:13:13.419Z,49.92
2023-04-27T14:15:41.684Z,48.96
2023-04-27T14:18:09.085Z,49.67
2023-04-27T14:20:37.315Z,47.98
2023-04-27T14:23:05.597Z,49.98
2023-04-27T14:25:34.713Z,50.01
2023-04-27T14:28:03.226Z,49.71
2023-04-27T14:30:31.815Z,48.65
2023-04-27T14:32:58.658Z,49.88
2023-04-27T14:35:26.285Z,48.68
2023-04-27T14:37:53.752Z,47.99
2023-04-27T14:40:20.737Z,49.45
2023-04-27T14:42:47.347Z,49.81
2023-04-27T14:45:16.323Z,50.61
2023-04-27T14:47:43.024Z,50.62
2023-04-27T14:50:11.929Z,50.82
2023-04-27T14:52:39.058Z,50.66
2023-04-27T14:55:07.343Z,51.08
2023-04-27T14:57:34.260Z,51.73
2023-04-27T15:00:01.486Z,52.65
2023-04-27T15:02:28.155Z,51.47
2023-04-27T15:04:55.544Z,49.43
2023-04-27T15:07:22.324Z,51.82
2023-04-27T15:09:49.243Z,52.90
2023-04-27T15:12:15.865Z,51.80
2023-04-27T15:14:42.805Z,52.57
2023-04-27T15:17:09.435Z,52.45
2023-04-27T15:19:36.743Z,52.92
2023-04-27T15:22:03.373Z,51.93
2023-04-27T15:24:30.276Z,51.85
2023-04-27T15:26:56.914Z,52.12
2023-04-27T15:29:24.214Z,50.60
2023-04-27T15:31:51.225Z,52.10
2023-04-27T15:34:18.606Z,51.58
2023-04-27T15:36:45.177Z,51.50
2023-04-27T15:39:12.137Z,51.15
2023-04-27T15:41:40.446Z,51.90
2023-04-27T15:44:07.791Z,52.87
2023-04-27T15:46:34.719Z,53.38
2023-04-27T15:49:01.646Z,53.38
2023-04-27T15:51:28.410Z,53.34
2023-04-27T15:53:55.694Z,53.83
2023-04-27T15:56:22.264Z,52.95
2023-04-27T15:58:49.514Z,52.68
2023-04-27T16:01:16.241Z,52.47
2023-04-27T16:03:43.893Z,53.04
2023-04-27T16:06:10.685Z,53.34
2023-04-27T16:08:37.972Z,54.02
2023-04-27T16:11:04.677Z,54.94
2023-04-27T16:13:32.908Z,54.34
2023-04-27T16:16:00.130Z,54.02
2023-04-27T16:18:27.087Z,54.37
2023-04-27T16:20:53.652Z,53.74
2023-04-27T16:23:20.573Z,54.22
2023-04-27T16:25:47.171Z,54.76
2023-04-27T16:28:14.440Z,54.40
2023-04-27T16:30:41.375Z,54.42
2023-04-27T16:33:08.662Z,53.84
2023-04-27T16:35:35.428Z,55.15
2023-04-27T16:38:02.534Z,54.70
2023-04-27T16:40:29.070Z,55.45
2023-04-27T16:42:55.977Z,55.01
2023-04-27T16:45:22.594Z,55.39
2023-04-27T16:47:49.855Z,53.89
2023-04-27T16:50:17.022Z,53.69
2023-04-27T16:52:43.949Z,53.71
2023-04-27T16:55:10.533Z,55.30
2023-04-27T16:57:37.501Z,55.33
2023-04-27T17:00:09.548Z,55.02
2023-04-27T17:02:36.535Z,54.87
2023-04-27T17:05:03.416Z,55.23
2023-04-27T17:07:33.058Z,55.32
2023-04-27T17:09:59.867Z,54.58
2023-04-27T17:12:27.260Z,55.42
2023-04-27T17:14:53.891Z,54.40
2023-04-27T17:17:21.437Z,55.28
2023-04-27T17:19:48.009Z,54.86
2023-04-27T17:22:15.280Z,55.00
2023-04-27T17:24:41.875Z,54.96
2023-04-27T17:27:08.566Z,54.80
2023-04-27T17:29:35.880Z,55.10
2023-04-27T17:32:02.578Z,54.00
2023-04-27T17:34:29.846Z,54.36
2023-04-27T17:36:56.455Z,54.77
2023-04-27T17:39:25.383Z,54.66
2023-04-27T17:41:52.088Z,55.03
2023-04-27T17:44:19.347Z,54.92
2023-04-27T17:46:47.789Z,56.22
2023-04-27T17:49:17.083Z,56.50
2023-04-27T17:51:44.613Z,56.94
2023-04-27T17:54:12.577Z,56.88
2023-04-27T17:56:39.560Z,56.97
2023-04-27T17:59:08.003Z,57.10
2023-04-27T18:01:34.912Z,58.66
2023-04-27T18:04:04.270Z,58.02
2023-04-27T18:06:32.030Z,58.83
2023-04-27T18:08:59.219Z,58.14
2023-04-27T18:11:25.871Z,58.72
2023-04-27T18:13:54.601Z,59.66
2023-04-27T18:16:21.295Z,59.30
2023-04-27T18:18:47.936Z,60.54
2023-04-27T18:21:14.518Z,60.64
2023-04-27T18:23:41.577Z,61.09
2023-04-27T18:26:09.804Z,61.96
2023-04-27T18:28:40.777Z,62.42
2023-04-27T18:31:18.166Z,62.17
2023-04-27T18:33:45.943Z,62.93
2023-04-27T18:36:12.769Z,63.41
2023-04-27T18:38:39.720Z,63.03
2023-04-27T18:41:07.117Z,63.24
2023-04-27T18:43:37.517Z,63.62
2023-04-27T18:46:04.583Z,63.72
2023-04-27T18:48:32.553Z,64.38
2023-04-27T18:50:59.253Z,63.57
2023-04-27T18:53:27.345Z,63.92
2023-04-27T18:55:53.946Z,64.69
2023-04-27T18:58:21.438Z,64.63
2023-04-27T19:00:48.114Z,65.50
2023-04-27T19:03:17.731Z,66.06
2023-04-27T19:05:47.850Z,65.70
2023-04-27T19:08:17.925Z,65.95
2023-04-27T19:10:45.090Z,65.20
2023-04-27T19:13:12.424Z,65.29
2023-04-27T19:15:39.043Z,65.15
2023-04-27T19:18:10.833Z,66.37
2023-04-27T19:20:38.718Z,66.80
2023-04-27T19:23:06.167Z,67.09
2023-04-27T19:25:32.877Z,66.73
2023-04-27T19:28:00.676Z,65.49
2023-04-27T19:30:27.700Z,66.17
2023-04-27T19:32:55.057Z,66.14
2023-04-27T19:35:23.647Z,66.11
2023-04-27T19:37:51.089Z,66.55
2023-04-27T19:40:18.089Z,66.76
2023-04-27T19:42:45.476Z,66.47
2023-04-27T19:45:12.163Z,67.38
2023-04-27T19:47:39.510Z,69.15
2023-04-27T19:50:06.872Z,69.99
2023-04-27T19:52:33.801Z,69.60
2023-04-27T19:55:00.411Z,69.18
2023-04-27T19:57:27.335Z,70.52
2023-04-27T19:59:54.248Z,71.53
2023-04-27T20:02:22.586Z,71.60
2023-04-27T20:04:49.533Z,71.78
2023-04-27T20:07:17.022Z,72.93
2023-04-27T20:09:43.691Z,72.88
2023-04-27T20:12:23.676Z,72.27
2023-04-27T20:14:56.165Z,73.75
2023-04-27T20:17:26.354Z,73.97
2023-04-27T20:19:57.087Z,73.83
2023-04-27T20:22:24.437Z,74.74
2023-04-27T20:24:51.454Z,75.23
2023-04-27T20:27:19.059Z,75.45
2023-04-27T20:29:47.119Z,74.96
